sensor_id;sensor_type;location;lat;lon;timestamp;pressure;altitude;pressure_sealevel;temperature;humidity
58471;BME280;44258;51.288;12.068;2022-09-30T00:01:13;99674.56;;;8.06;59.88
58471;BME280;44258;51.288;12.068;2022-09-30T00:03:40;99679.38;;;8.00;59.79
58471;BME280;44258;51.288;12.068;2022-09-30T00:06:08;99680.50;;;7.96;59.95
58471;BME280;44258;51.288;12.068;2022-09-30T00:08:35;99687.84;;;7.92;59.82
58471;BME280;44258;51.288;12.068;2022-09-30T00:11:05;99691.28;;;7.94;59.85
58471;BME280;44258;51.288;12.068;2022-09-30T00:13:33;99693.72;;;7.83;59.96
58471;BME280;44258;51.288;12.068;2022-09-30T00:16:00;99694.22;;;7.89;59.45
58471;BME280;44258;51.288;12.068;2022-09-30T00:18:27;99690.69;;;7.89;59.74
58471;BME280;44258;51.288;12.068;2022-09-30T00:20:54;99692.53;;;7.88;59.63
58471;BME280;44258;51.288;12.068;2022-09-30T00:23:21;99684.31;;;7.91;59.54
58471;BME280;44258;51.288;12.068;2022-09-30T00:25:49;99692.41;;;7.90;59.67
58471;BME280;44258;51.288;12.068;2022-09-30T00:28:17;99693.19;;;7.92;59.70
58471;BME280;44258;51.288;12.068;2022-09-30T00:30:44;99689.72;;;7.90;59.35
58471;BME280;44258;51.288;12.068;2022-09-30T00:33:10;99694.16;;;7.91;59.62
58471;BME280;44258;51.288;12.068;2022-09-30T00:35:37;99688.03;;;7.89;59.46
58471;BME280;44258;51.288;12.068;2022-09-30T00:38:03;99685.94;;;7.94;59.44
58471;BME280;44258;51.288;12.068;2022-09-30T00:40:30;99686.63;;;7.98;59.34
58471;BME280;44258;51.288;12.068;2022-09-30T00:42:57;99675.69;;;8.02;59.03
58471;BME280;44258;51.288;12.068;2022-09-30T00:45:27;99680.50;;;7.96;59.49
58471;BME280;44258;51.288;12.068;2022-09-30T00:47:56;99679.56;;;7.81;59.71
58471;BME280;44258;51.288;12.068;2022-09-30T00:50:36;99677.34;;;7.71;59.78
58471;BME280;44258;51.288;12.068;2022-09-30T00:53:09;99691.25;;;7.78;59.48
58471;BME280;44258;51.288;12.068;2022-09-30T00:55:47;99687.63;;;7.79;59.42
58471;BME280;44258;51.288;12.068;2022-09-30T00:58:21;99700.09;;;7.80;59.22
58471;BME280;44258;51.288;12.068;2022-09-30T01:00:50;99695.84;;;7.76;59.44
58471;BME280;44258;51.288;12.068;2022-09-30T01:03:18;99699.19;;;7.64;59.58
58471;BME280;44258;51.288;12.068;2022-09-30T01:05:47;99698.41;;;7.62;59.53
58471;BME280;44258;51.288;12.068;2022-09-30T01:08:15;99696.59;;;7.62;59.76
58471;BME280;44258;51.288;12.068;2022-09-30T01:10:43;99707.81;;;7.69;59.05
58471;BME280;44258;51.288;12.068;2022-09-30T01:13:10;99710.56;;;7.67;59.01
58471;BME280;44258;51.288;12.068;2022-09-30T01:15:53;99708.22;;;7.61;59.25
58471;BME280;44258;51.288;12.068;2022-09-30T01:18:30;99717.34;;;7.57;59.23
58471;BME280;44258;51.288;12.068;2022-09-30T01:21:18;99707.94;;;7.50;59.78
58471;BME280;44258;51.288;12.068;2022-09-30T01:27:12;99707.56;;;7.23;59.92
58471;BME280;44258;51.288;12.068;2022-09-30T01:30:03;99711.81;;;7.27;60.42
58471;BME280;44258;51.288;12.068;2022-09-30T01:32:50;99710.72;;;7.31;60.33
58471;BME280;44258;51.288;12.068;2022-09-30T01:35:29;99710.72;;;7.31;60.14
58471;BME280;44258;51.288;12.068;2022-09-30T01:38:06;99711.50;;;7.33;60.35
58471;BME280;44258;51.288;12.068;2022-09-30T01:40:39;99715.59;;;7.40;60.13
58471;BME280;44258;51.288;12.068;2022-09-30T01:43:14;99720.16;;;7.38;59.92
58471;BME280;44258;51.288;12.068;2022-09-30T01:45:47;99714.09;;;7.34;60.25
58471;BME280;44258;51.288;12.068;2022-09-30T01:48:19;99715.28;;;7.29;60.40
58471;BME280;44258;51.288;12.068;2022-09-30T01:50:51;99703.47;;;7.33;60.51
58471;BME280;44258;51.288;12.068;2022-09-30T01:53:28;99705.16;;;7.36;60.58
58471;BME280;44258;51.288;12.068;2022-09-30T01:56:00;99710.25;;;7.40;60.33
58471;BME280;44258;51.288;12.068;2022-09-30T01:58:37;99712.13;;;7.38;60.44
58471;BME280;44258;51.288;12.068;2022-09-30T02:01:08;99718.72;;;7.48;60.35
58471;BME280;44258;51.288;12.068;2022-09-30T02:03:41;99708.19;;;7.45;60.49
58471;BME280;44258;51.288;12.068;2022-09-30T02:06:13;99717.00;;;7.47;60.63
58471;BME280;44258;51.288;12.068;2022-09-30T02:08:44;99726.69;;;7.50;60.59
58471;BME280;44258;51.288;12.068;2022-09-30T02:11:14;99726.41;;;7.54;60.95
58471;BME280;44258;51.288;12.068;2022-09-30T02:13:47;99734.63;;;7.51;60.99
58471;BME280;44258;51.288;12.068;2022-09-30T02:16:19;99737.31;;;7.51;60.99
58471;BME280;44258;51.288;12.068;2022-09-30T02:18:52;99723.75;;;7.54;60.98
58471;BME280;44258;51.288;12.068;2022-09-30T02:21:23;99722.81;;;7.56;60.87
58471;BME280;44258;51.288;12.068;2022-09-30T02:23:57;99735.72;;;7.47;61.05
58471;BME280;44258;51.288;12.068;2022-09-30T02:26:28;99751.22;;;7.58;60.67
58471;BME280;44258;51.288;12.068;2022-09-30T02:28:57;99754.75;;;7.59;60.67
58471;BME280;44258;51.288;12.068;2022-09-30T02:31:32;99752.38;;;7.52;61.27
58471;BME280;44258;51.288;12.068;2022-09-30T02:34:04;99747.69;;;7.40;62.09
58471;BME280;44258;51.288;12.068;2022-09-30T02:36:35;99745.88;;;7.41;61.90
58471;BME280;44258;51.288;12.068;2022-09-30T02:39:05;99751.84;;;7.46;61.49
58471;BME280;44258;51.288;12.068;2022-09-30T02:41:36;99756.03;;;7.51;61.29
58471;BME280;44258;51.288;12.068;2022-09-30T02:44:05;99744.75;;;7.62;61.40
58471;BME280;44258;51.288;12.068;2022-09-30T02:46:40;99750.13;;;7.45;62.15
58471;BME280;44258;51.288;12.068;2022-09-30T02:49:18;99760.03;;;7.43;62.29
58471;BME280;44258;51.288;12.068;2022-09-30T02:51:58;99759.63;;;7.50;61.98
58471;BME280;44258;51.288;12.068;2022-09-30T02:54:31;99769.75;;;7.61;61.32
58471;BME280;44258;51.288;12.068;2022-09-30T02:57:06;99764.66;;;7.57;61.80
58471;BME280;44258;51.288;12.068;2022-09-30T02:59:38;99758.28;;;7.59;61.65
58471;BME280;44258;51.288;12.068;2022-09-30T03:02:06;99762.31;;;7.50;62.05
58471;BME280;44258;51.288;12.068;2022-09-30T03:04:34;99755.63;;;7.42;62.10
58471;BME280;44258;51.288;12.068;2022-09-30T03:07:05;99761.53;;;7.48;61.92
58471;BME280;44258;51.288;12.068;2022-09-30T03:09:33;99762.16;;;7.53;61.85
58471;BME280;44258;51.288;12.068;2022-09-30T03:12:07;99774.56;;;7.54;61.77
58471;BME280;44258;51.288;12.068;2022-09-30T03:14:55;99769.00;;;7.42;62.29
58471;BME280;44258;51.288;12.068;2022-09-30T03:17:40;99768.69;;;7.48;62.32
58471;BME280;44258;51.288;12.068;2022-09-30T03:20:22;99759.50;;;7.53;62.46
58471;BME280;44258;51.288;12.068;2022-09-30T03:23:08;99768.03;;;7.60;61.59
58471;BME280;44258;51.288;12.068;2022-09-30T03:25:45;99768.03;;;7.60;62.19
58471;BME280;44258;51.288;12.068;2022-09-30T03:28:22;99778.56;;;7.63;62.01
58471;BME280;44258;51.288;12.068;2022-09-30T03:30:56;99773.66;;;7.56;61.74
58471;BME280;44258;51.288;12.068;2022-09-30T03:33:29;99769.88;;;7.42;62.28
58471;BME280;44258;51.288;12.068;2022-09-30T03:36:04;99780.63;;;7.41;62.20
58471;BME280;44258;51.288;12.068;2022-09-30T03:38:38;99785.69;;;7.47;61.82
58471;BME280;44258;51.288;12.068;2022-09-30T03:41:11;99790.81;;;7.51;61.87
58471;BME280;44258;51.288;12.068;2022-09-30T03:43:45;99784.44;;;7.54;61.88
58471;BME280;44258;51.288;12.068;2022-09-30T03:46:18;99785.34;;;7.53;61.86
58471;BME280;44258;51.288;12.068;2022-09-30T03:48:49;99787.75;;;7.42;62.29
58471;BME280;44258;51.288;12.068;2022-09-30T03:51:18;99798.44;;;7.42;62.16
58471;BME280;44258;51.288;12.068;2022-09-30T03:53:46;99804.31;;;7.48;62.24
58471;BME280;44258;51.288;12.068;2022-09-30T03:56:13;99802.63;;;7.47;62.15
58471;BME280;44258;51.288;12.068;2022-09-30T03:58:41;99804.31;;;7.48;62.05
58471;BME280;44258;51.288;12.068;2022-09-30T04:01:15;99802.94;;;7.41;62.17
58471;BME280;44258;51.288;12.068;2022-09-30T04:03:43;99806.16;;;7.48;61.79
58471;BME280;44258;51.288;12.068;2022-09-30T04:06:12;99812.53;;;7.45;61.63
58471;BME280;44258;51.288;12.068;2022-09-30T04:08:40;99807.38;;;7.41;61.94
58471;BME280;44258;51.288;12.068;2022-09-30T04:11:06;99806.38;;;7.43;61.71
58471;BME280;44258;51.288;12.068;2022-09-30T04:13:33;99811.09;;;7.38;61.41
58471;BME280;44258;51.288;12.068;2022-09-30T04:16:00;99812.44;;;7.29;61.94
58471;BME280;44258;51.288;12.068;2022-09-30T04:18:26;99810.44;;;7.33;61.61
58471;BME280;44258;51.288;12.068;2022-09-30T04:20:55;99809.78;;;7.29;61.73
58471;BME280;44258;51.288;12.068;2022-09-30T04:23:23;99818.16;;;7.22;61.76
58471;BME280;44258;51.288;12.068;2022-09-30T04:25:54;99822.00;;;7.16;62.00
58471;BME280;44258;51.288;12.068;2022-09-30T04:28:21;99823.84;;;7.16;61.82
58471;BME280;44258;51.288;12.068;2022-09-30T04:30:48;99828.31;;;7.15;62.34
58471;BME280;44258;51.288;12.068;2022-09-30T04:33:14;99826.03;;;7.25;62.10
58471;BME280;44258;51.288;12.068;2022-09-30T04:35:41;99834.28;;;7.20;61.95
58471;BME280;44258;51.288;12.068;2022-09-30T04:38:08;99833.25;;;7.23;61.89
58471;BME280;44258;51.288;12.068;2022-09-30T04:40:35;99837.44;;;7.28;61.87
58471;BME280;44258;51.288;12.068;2022-09-30T04:43:03;99834.28;;;7.20;61.82
58471;BME280;44258;51.288;12.068;2022-09-30T04:45:30;99830.72;;;7.02;62.37
58471;BME280;44258;51.288;12.068;2022-09-30T04:47:57;99828.75;;;7.06;62.57
58471;BME280;44258;51.288;12.068;2022-09-30T04:50:23;99835.56;;;7.13;62.06
58471;BME280;44258;51.288;12.068;2022-09-30T04:52:50;99834.75;;;7.11;62.13
58471;BME280;44258;51.288;12.068;2022-09-30T04:55:16;99833.19;;;7.07;62.15
58471;BME280;44258;51.288;12.068;2022-09-30T04:57:43;99848.91;;;7.13;62.17
58471;BME280;44258;51.288;12.068;2022-09-30T05:00:12;99847.72;;;7.19;61.92
58471;BME280;44258;51.288;12.068;2022-09-30T05:02:41;99839.88;;;7.16;61.90
58471;BME280;44258;51.288;12.068;2022-09-30T05:05:08;99851.19;;;7.21;61.85
58471;BME280;44258;51.288;12.068;2022-09-30T05:07:35;99856.47;;;7.22;61.59
58471;BME280;44258;51.288;12.068;2022-09-30T05:10:01;99861.97;;;7.19;61.85
58471;BME280;44258;51.288;12.068;2022-09-30T05:12:28;99859.91;;;7.07;62.06
58471;BME280;44258;51.288;12.068;2022-09-30T05:14:56;99870.22;;;7.14;61.60
58471;BME280;44258;51.288;12.068;2022-09-30T05:17:24;99868.19;;;7.20;61.50
58471;BME280;44258;51.288;12.068;2022-09-30T05:19:51;99868.91;;;7.23;61.16
58471;BME280;44258;51.288;12.068;2022-09-30T05:22:17;99861.88;;;7.21;61.19
58471;BME280;44258;51.288;12.068;2022-09-30T05:24:44;99863.47;;;7.25;61.18
58471;BME280;44258;51.288;12.068;2022-09-30T05:27:10;99863.31;;;7.28;61.28
58471;BME280;44258;51.288;12.068;2022-09-30T05:29:37;99865.28;;;7.24;61.58
58471;BME280;44258;51.288;12.068;2022-09-30T05:32:04;99860.72;;;7.26;61.17
58471;BME280;44258;51.288;12.068;2022-09-30T05:34:33;99859.44;;;7.16;61.66
58471;BME280;44258;51.288;12.068;2022-09-30T05:37:00;99864.00;;;7.14;61.58
58471;BME280;44258;51.288;12.068;2022-09-30T05:39:26;99856.84;;;7.14;61.65
58471;BME280;44258;51.288;12.068;2022-09-30T05:41:55;99868.56;;;7.12;61.42
58471;BME280;44258;51.288;12.068;2022-09-30T05:44:22;99871.97;;;7.16;61.31
58471;BME280;44258;51.288;12.068;2022-09-30T05:46:48;99872.81;;;7.16;61.45
58471;BME280;44258;51.288;12.068;2022-09-30T05:49:15;99879.75;;;7.20;61.28
58471;BME280;44258;51.288;12.068;2022-09-30T05:51:43;99878.66;;;7.24;61.13
58471;BME280;44258;51.288;12.068;2022-09-30T05:54:10;99882.13;;;7.26;61.33
58471;BME280;44258;51.288;12.068;2022-09-30T05:56:37;99884.16;;;7.21;61.44
58471;BME280;44258;51.288;12.068;2022-09-30T05:59:03;99893.59;;;7.11;61.65
58471;BME280;44258;51.288;12.068;2022-09-30T06:01:30;99893.22;;;7.00;61.90
58471;BME280;44258;51.288;12.068;2022-09-30T06:03:57;99891.03;;;7.08;61.95
58471;BME280;44258;51.288;12.068;2022-09-30T06:06:24;99888.63;;;7.21;61.53
58471;BME280;44258;51.288;12.068;2022-09-30T06:08:52;99887.16;;;7.32;61.52
58471;BME280;44258;51.288;12.068;2022-09-30T06:11:20;99891.09;;;7.43;61.26
58471;BME280;44258;51.288;12.068;2022-09-30T06:13:50;99902.28;;;7.51;61.10
58471;BME280;44258;51.288;12.068;2022-09-30T06:16:17;99911.34;;;7.48;61.20
58471;BME280;44258;51.288;12.068;2022-09-30T06:18:44;99915.75;;;7.49;61.64
58471;BME280;44258;51.288;12.068;2022-09-30T06:21:13;99920.81;;;7.56;61.72
58471;BME280;44258;51.288;12.068;2022-09-30T06:23:40;99922.75;;;7.69;61.42
58471;BME280;44258;51.288;12.068;2022-09-30T06:26:10;99930.03;;;7.85;61.43
58471;BME280;44258;51.288;12.068;2022-09-30T06:28:38;99937.13;;;8.03;61.23
58471;BME280;44258;51.288;12.068;2022-09-30T06:31:05;99929.16;;;8.19;61.31
58471;BME280;44258;51.288;12.068;2022-09-30T06:33:32;99936.16;;;8.39;61.14
58471;BME280;44258;51.288;12.068;2022-09-30T06:36:00;99933.47;;;8.55;61.31
58471;BME280;44258;51.288;12.068;2022-09-30T06:38:29;99938.97;;;8.69;61.40
58471;BME280;44258;51.288;12.068;2022-09-30T06:40:57;99953.50;;;8.81;61.31
58471;BME280;44258;51.288;12.068;2022-09-30T06:43:25;99949.28;;;8.93;61.41
58471;BME280;44258;51.288;12.068;2022-09-30T06:45:52;99956.03;;;9.16;61.14
58471;BME280;44258;51.288;12.068;2022-09-30T06:48:18;99963.22;;;9.31;61.14
58471;BME280;44258;51.288;12.068;2022-09-30T06:50:45;99962.28;;;9.48;60.90
58471;BME280;44258;51.288;12.068;2022-09-30T06:53:12;99959.00;;;9.59;60.51
58471;BME280;44258;51.288;12.068;2022-09-30T06:55:38;99973.09;;;9.63;60.44
58471;BME280;44258;51.288;12.068;2022-09-30T06:58:07;99968.50;;;9.65;60.30
58471;BME280;44258;51.288;12.068;2022-09-30T07:00:36;99965.03;;;9.63;60.01
58471;BME280;44258;51.288;12.068;2022-09-30T07:03:04;99970.59;;;9.60;59.49
58471;BME280;44258;51.288;12.068;2022-09-30T07:05:34;99968.84;;;9.59;59.33
58471;BME280;44258;51.288;12.068;2022-09-30T07:08:01;99969.91;;;9.56;59.70
58471;BME280;44258;51.288;12.068;2022-09-30T07:10:27;99969.81;;;9.58;59.60
58471;BME280;44258;51.288;12.068;2022-09-30T07:12:54;99976.81;;;9.60;59.82
58471;BME280;44258;51.288;12.068;2022-09-30T07:15:21;99988.84;;;9.69;59.82
58471;BME280;44258;51.288;12.068;2022-09-30T07:17:55;99999.41;;;9.72;60.10
58471;BME280;44258;51.288;12.068;2022-09-30T07:20:22;100006.75;;;9.84;59.65
58471;BME280;44258;51.288;12.068;2022-09-30T07:22:48;100008.47;;;9.85;59.98
58471;BME280;44258;51.288;12.068;2022-09-30T07:25:16;100005.53;;;9.90;59.91
58471;BME280;44258;51.288;12.068;2022-09-30T07:27:43;100007.16;;;9.92;59.78
58471;BME280;44258;51.288;12.068;2022-09-30T07:30:11;100005.09;;;9.98;59.85
58471;BME280;44258;51.288;12.068;2022-09-30T07:32:37;100014.88;;;9.99;59.79
58471;BME280;44258;51.288;12.068;2022-09-30T07:35:06;100001.03;;;10.21;60.21
58471;BME280;44258;51.288;12.068;2022-09-30T07:37:33;100006.94;;;10.56;60.05
58471;BME280;44258;51.288;12.068;2022-09-30T07:40:03;100010.56;;;11.00;60.31
58471;BME280;44258;51.288;12.068;2022-09-30T07:42:30;100005.06;;;11.30;59.57
58471;BME280;44258;51.288;12.068;2022-09-30T07:44:57;100007.00;;;11.55;59.03
58471;BME280;44258;51.288;12.068;2022-09-30T07:47:25;100009.59;;;11.57;58.64
58471;BME280;44258;51.288;12.068;2022-09-30T07:49:51;100007.50;;;12.02;58.39
58471;BME280;44258;51.288;12.068;2022-09-30T07:52:19;100013.47;;;12.07;57.11
58471;BME280;44258;51.288;12.068;2022-09-30T07:54:46;100015.13;;;12.09;57.70
58471;BME280;44258;51.288;12.068;2022-09-30T07:57:13;100023.00;;;12.25;56.78
58471;BME280;44258;51.288;12.068;2022-09-30T07:59:41;100016.81;;;12.50;57.22
58471;BME280;44258;51.288;12.068;2022-09-30T08:02:13;100022.72;;;12.43;56.93
58471;BME280;44258;51.288;12.068;2022-09-30T08:04:40;100024.13;;;12.74;57.05
58471;BME280;44258;51.288;12.068;2022-09-30T08:07:07;100017.56;;;13.04;56.51
58471;BME280;44258;51.288;12.068;2022-09-30T08:09:35;100030.59;;;13.23;55.57
58471;BME280;44258;51.288;12.068;2022-09-30T08:12:02;100033.31;;;13.36;55.12
58471;BME280;44258;51.288;12.068;2022-09-30T08:14:29;100032.63;;;13.19;56.04
58471;BME280;44258;51.288;12.068;2022-09-30T08:16:56;100037.06;;;13.20;55.11
58471;BME280;44258;51.288;12.068;2022-09-30T08:19:25;100042.59;;;13.31;55.47
58471;BME280;44258;51.288;12.068;2022-09-30T08:21:52;100042.72;;;13.30;55.17
58471;BME280;44258;51.288;12.068;2022-09-30T08:24:19;100045.75;;;13.25;55.19
58471;BME280;44258;51.288;12.068;2022-09-30T08:26:47;100050.78;;;13.43;55.64
58471;BME280;44258;51.288;12.068;2022-09-30T08:29:14;100052.31;;;13.71;55.32
58471;BME280;44258;51.288;12.068;2022-09-30T08:31:41;100058.59;;;13.71;55.08
58471;BME280;44258;51.288;12.068;2022-09-30T08:34:07;100056.34;;;13.89;55.00
58471;BME280;44258;51.288;12.068;2022-09-30T08:36:34;100050.69;;;14.05;54.28
58471;BME280;44258;51.288;12.068;2022-09-30T08:39:01;100063.84;;;14.10;53.73
58471;BME280;44258;51.288;12.068;2022-09-30T08:42:02;100063.19;;;14.30;53.96
58471;BME280;44258;51.288;12.068;2022-09-30T08:44:41;100053.78;;;14.36;53.33
58471;BME280;44258;51.288;12.068;2022-09-30T08:47:24;100059.47;;;14.44;52.52
58471;BME280;44258;51.288;12.068;2022-09-30T08:50:02;100059.63;;;14.54;52.78
58471;BME280;44258;51.288;12.068;2022-09-30T08:52:35;100055.59;;;14.71;52.39
58471;BME280;44258;51.288;12.068;2022-09-30T08:55:05;100053.47;;;14.63;51.82
58471;BME280;44258;51.288;12.068;2022-09-30T08:57:38;100050.03;;;14.61;52.51
58471;BME280;44258;51.288;12.068;2022-09-30T09:00:12;100053.75;;;14.60;51.58
58471;BME280;44258;51.288;12.068;2022-09-30T09:02:44;100043.78;;;14.61;51.61
58471;BME280;44258;51.288;12.068;2022-09-30T09:05:17;100055.66;;;14.47;51.30
58471;BME280;44258;51.288;12.068;2022-09-30T09:07:53;100054.97;;;14.56;51.33
58471;BME280;44258;51.288;12.068;2022-09-30T09:10:27;100059.56;;;14.78;51.02
58471;BME280;44258;51.288;12.068;2022-09-30T09:13:07;100056.88;;;14.89;50.68
58471;BME280;44258;51.288;12.068;2022-09-30T09:15:47;100057.97;;;14.98;49.70
58471;BME280;44258;51.288;12.068;2022-09-30T09:18:35;100060.09;;;14.94;48.89
58471;BME280;44258;51.288;12.068;2022-09-30T09:21:20;100049.38;;;14.93;49.27
58471;BME280;44258;51.288;12.068;2022-09-30T09:23:48;100056.97;;;14.88;49.04
58471;BME280;44258;51.288;12.068;2022-09-30T09:26:16;100049.97;;;14.85;49.32
58471;BME280;44258;51.288;12.068;2022-09-30T09:28:55;100049.81;;;14.75;49.88
58471;BME280;44258;51.288;12.068;2022-09-30T09:31:25;100042.44;;;14.78;49.19
58471;BME280;44258;51.288;12.068;2022-09-30T09:33:55;100042.69;;;14.74;49.17
58471;BME280;44258;51.288;12.068;2022-09-30T09:36:40;100039.72;;;14.78;49.48
58471;BME280;44258;51.288;12.068;2022-09-30T09:39:22;100028.19;;;14.87;49.10
58471;BME280;44258;51.288;12.068;2022-09-30T09:41:58;100044.94;;;14.81;49.25
58471;BME280;44258;51.288;12.068;2022-09-30T09:44:34;100049.59;;;14.90;49.86
58471;BME280;44258;51.288;12.068;2022-09-30T09:47:08;100053.53;;;14.86;49.12
58471;BME280;44258;51.288;12.068;2022-09-30T09:49:39;100052.81;;;14.95;48.84
58471;BME280;44258;51.288;12.068;2022-09-30T09:52:37;100053.66;;;14.95;49.08
58471;BME280;44258;51.288;12.068;2022-09-30T09:55:07;100057.75;;;15.01;49.07
58471;BME280;44258;51.288;12.068;2022-09-30T09:57:35;100049.38;;;14.93;48.69
58471;BME280;44258;51.288;12.068;2022-09-30T10:00:07;100059.84;;;14.86;49.02
58471;BME280;44258;51.288;12.068;2022-09-30T10:03:00;100052.78;;;14.72;47.43
58471;BME280;44258;51.288;12.068;2022-09-30T10:05:28;100048.47;;;14.70;48.63
58471;BME280;44258;51.288;12.068;2022-09-30T10:08:11;100047.38;;;14.72;48.60
58471;BME280;44258;51.288;12.068;2022-09-30T10:10:43;100049.72;;;14.77;48.87
58471;BME280;44258;51.288;12.068;2022-09-30T10:13:19;100045.78;;;14.70;48.20
58471;BME280;44258;51.288;12.068;2022-09-30T10:15:51;100053.00;;;14.69;48.36
58471;BME280;44258;51.288;12.068;2022-09-30T10:18:22;100051.78;;;14.73;48.81
58471;BME280;44258;51.288;12.068;2022-09-30T10:20:56;100045.66;;;14.94;48.48
58471;BME280;44258;51.288;12.068;2022-09-30T10:23:28;100045.56;;;14.95;48.07
58471;BME280;44258;51.288;12.068;2022-09-30T10:26:02;100040.88;;;14.98;47.00
58471;BME280;44258;51.288;12.068;2022-09-30T10:28:31;100034.84;;;14.94;47.07
58471;BME280;44258;51.288;12.068;2022-09-30T10:31:02;100036.81;;;15.03;47.37
58471;BME280;44258;51.288;12.068;2022-09-30T10:33:34;100035.34;;;15.10;47.46
58471;BME280;44258;51.288;12.068;2022-09-30T10:36:13;100033.03;;;15.17;46.58
58471;BME280;44258;51.288;12.068;2022-09-30T10:39:02;100035.97;;;15.25;46.86
58471;BME280;44258;51.288;12.068;2022-09-30T10:41:30;100027.59;;;15.28;45.32
58471;BME280;44258;51.288;12.068;2022-09-30T10:43:59;100028.19;;;15.32;45.52
58471;BME280;44258;51.288;12.068;2022-09-30T10:46:31;100031.41;;;15.26;44.17
58471;BME280;44258;51.288;12.068;2022-09-30T10:49:07;100027.94;;;15.12;44.46
58471;BME280;44258;51.288;12.068;2022-09-30T10:51:35;100023.75;;;15.08;45.15
58471;BME280;44258;51.288;12.068;2022-09-30T10:54:03;100028.69;;;15.14;45.35
58471;BME280;44258;51.288;12.068;2022-09-30T10:56:39;100031.66;;;15.11;45.51
58471;BME280;44258;51.288;12.068;2022-09-30T10:59:13;100029.44;;;15.17;44.88
58471;BME280;44258;51.288;12.068;2022-09-30T11:01:48;100030.03;;;15.20;45.40
58471;BME280;44258;51.288;12.068;2022-09-30T11:04:24;100031.19;;;15.29;45.13
58471;BME280;44258;51.288;12.068;2022-09-30T11:06:56;100030.81;;;15.33;45.31
58471;BME280;44258;51.288;12.068;2022-09-30T11:09:32;100026.50;;;15.31;45.53
58471;BME280;44258;51.288;12.068;2022-09-30T11:12:04;100022.59;;;15.35;45.30
58471;BME280;44258;51.288;12.068;2022-09-30T11:14:38;100022.44;;;15.37;44.16
58471;BME280;44258;51.288;12.068;2022-09-30T11:17:23;100015.03;;;15.39;45.25
58471;BME280;44258;51.288;12.068;2022-09-30T11:19:59;100016.91;;;15.49;44.61
58471;BME280;44258;51.288;12.068;2022-09-30T11:22:38;100014.94;;;15.40;44.71
58471;BME280;44258;51.288;12.068;2022-09-30T11:25:11;100012.72;;;15.34;45.31
58471;BME280;44258;51.288;12.068;2022-09-30T11:27:47;100011.94;;;15.54;44.80
58471;BME280;44258;51.288;12.068;2022-09-30T11:30:19;100007.91;;;15.38;44.37
58471;BME280;44258;51.288;12.068;2022-09-30T11:33:00;100006.78;;;15.40;44.92
58471;BME280;44258;51.288;12.068;2022-09-30T11:35:45;100007.19;;;15.36;44.46
58471;BME280;44258;51.288;12.068;2022-09-30T11:38:33;100008.63;;;15.28;44.48
58471;BME280;44258;51.288;12.068;2022-09-30T11:41:08;100006.78;;;15.29;44.39
58471;BME280;44258;51.288;12.068;2022-09-30T11:43:45;100003.13;;;15.41;44.96
58471;BME280;44258;51.288;12.068;2022-09-30T11:49:16;100007.88;;;15.60;44.92
58471;BME280;44258;51.288;12.068;2022-09-30T11:51:53;100012.28;;;15.72;43.92
58471;BME280;44258;51.288;12.068;2022-09-30T11:54:35;100007.09;;;15.81;44.31
58471;BME280;44258;51.288;12.068;2022-09-30T11:57:10;100009.06;;;15.79;43.54
58471;BME280;44258;51.288;12.068;2022-09-30T11:59:43;100010.31;;;15.74;43.40
58471;BME280;44258;51.288;12.068;2022-09-30T12:02:22;100002.69;;;15.68;44.23
58471;BME280;44258;51.288;12.068;2022-09-30T12:04:56;100013.63;;;15.78;44.83
58471;BME280;44258;51.288;12.068;2022-09-30T12:07:33;100016.47;;;15.77;43.37
58471;BME280;44258;51.288;12.068;2022-09-30T12:10:04;100021.34;;;15.94;43.84
58471;BME280;44258;51.288;12.068;2022-09-30T12:12:38;100016.72;;;16.06;43.75
58471;BME280;44258;51.288;12.068;2022-09-30T12:15:06;100015.41;;;16.00;43.18
58471;BME280;44258;51.288;12.068;2022-09-30T12:17:38;100010.97;;;15.99;43.18
58471;BME280;44258;51.288;12.068;2022-09-30T12:20:14;100012.44;;;16.03;43.04
58471;BME280;44258;51.288;12.068;2022-09-30T12:22:45;100015.31;;;15.90;42.04
58471;BME280;44258;51.288;12.068;2022-09-30T12:25:16;100016.72;;;16.06;42.55
58471;BME280;44258;51.288;12.068;2022-09-30T12:27:47;100016.72;;;16.06;42.27
58471;BME280;44258;51.288;12.068;2022-09-30T12:30:17;100004.91;;;16.07;42.00
58471;BME280;44258;51.288;12.068;2022-09-30T12:36:03;100013.06;;;16.28;42.21
58471;BME280;44258;51.288;12.068;2022-09-30T12:38:50;100013.84;;;16.19;42.15
58471;BME280;44258;51.288;12.068;2022-09-30T12:41:31;100013.56;;;16.22;41.72
58471;BME280;44258;51.288;12.068;2022-09-30T12:44:21;100017.53;;;16.29;42.15
58471;BME280;44258;51.288;12.068;2022-09-30T12:47:08;100017.00;;;16.03;41.03
58471;BME280;44258;51.288;12.068;2022-09-30T12:49:40;100024.41;;;16.33;41.84
58471;BME280;44258;51.288;12.068;2022-09-30T12:52:13;100023.53;;;16.32;42.00
58471;BME280;44258;51.288;12.068;2022-09-30T12:54:46;100017.59;;;16.39;41.77
58471;BME280;44258;51.288;12.068;2022-09-30T12:57:18;100025.88;;;16.37;41.13
58471;BME280;44258;51.288;12.068;2022-09-30T12:59:50;100023.81;;;16.29;41.44
58471;BME280;44258;51.288;12.068;2022-09-30T13:02:29;100016.28;;;16.22;41.44
58471;BME280;44258;51.288;12.068;2022-09-30T13:05:30;100012.97;;;16.18;41.71
58471;BME280;44258;51.288;12.068;2022-09-30T13:11:39;100015.69;;;16.29;41.94
58471;BME280;44258;51.288;12.068;2022-09-30T13:14:17;100012.44;;;16.36;41.75
58471;BME280;44258;51.288;12.068;2022-09-30T13:17:22;100005.31;;;16.23;41.56
58471;BME280;44258;51.288;12.068;2022-09-30T13:19:52;100008.16;;;16.33;41.47
58471;BME280;44258;51.288;12.068;2022-09-30T13:22:55;100005.28;;;16.34;41.46
58471;BME280;44258;51.288;12.068;2022-09-30T13:25:23;100009.41;;;16.29;41.16
58471;BME280;44258;51.288;12.068;2022-09-30T13:27:52;100010.97;;;16.20;41.21